Time;durP1;ratioP1;P1;durP2;ratioP2;P2;SDS_P1;SDS_P2;PMS_P1;PMS_P2;Temp;Humidity;BMP_temperature;BMP_pressure;BME280_temperature;BME280_humidity;BME280_pressure;Samples;Min_cycle;Max_cycle;Signal;HPM_P1;HPM_P2
2023/03/06 00:00:59;;;;;;;5.40;4.20;;;;;;;6.68;43.40;100899.97;107031;1269;25461;-47
2023/03/06 00:03:27;;;;;;;8.00;4.10;;;;;;;6.63;43.33;100904.98;106817;1270;25562;-48
2023/03/06 00:05:57;;;;;;;12.30;4.60;;;;;;;6.57;43.14;100896.73;106954;1268;25500;-47
2023/03/06 00:08:27;;;;;;;9.30;4.30;;;;;;;6.53;43.26;100891.23;106290;1268;1003003;-48
2023/03/06 00:10:59;;;;;;;5.70;4.00;;;;;;;6.51;43.09;100890.87;106171;1269;1003408;-48
2023/03/06 00:13:33;;;;;;;6.60;4.40;;;;;;;6.50;43.20;100892.27;106005;1276;1002884;-47
2023/03/06 00:16:05;;;;;;;6.60;4.30;;;;;;;6.49;43.07;100896.05;106991;1269;25344;-47
2023/03/06 00:18:34;;;;;;;7.60;4.70;;;;;;;6.50;43.15;100895.02;106201;1268;1003559;-47
2023/03/06 00:21:08;;;;;;;8.00;5.20;;;;;;;6.51;42.77;100895.71;107013;1268;22525;-49
2023/03/06 00:23:36;;;;;;;8.30;5.50;;;;;;;6.51;42.37;100896.05;107065;1268;27013;-48
2023/03/06 00:26:07;;;;;;;7.40;4.80;;;;;;;6.52;42.33;100897.27;106368;1269;1003077;-48
2023/03/06 00:28:37;;;;;;;9.50;5.60;;;;;;;6.53;42.39;100890.70;107114;1269;25402;-48
2023/03/06 00:31:14;;;;;;;7.30;4.60;;;;;;;6.58;42.42;100896.03;106865;1272;26503;-48
2023/03/06 00:33:44;;;;;;;7.40;4.80;;;;;;;6.63;42.62;100894.63;107053;1269;25353;-48
2023/03/06 00:36:13;;;;;;;6.30;3.90;;;;;;;6.65;42.77;100890.34;106279;1269;1003719;-49
2023/03/06 00:38:41;;;;;;;9.20;4.60;;;;;;;6.67;42.91;100887.04;106747;1272;24277;-49
2023/03/06 00:41:11;;;;;;;6.70;4.60;;;;;;;6.68;43.33;100893.23;107154;1269;25347;-48
2023/03/06 00:43:39;;;;;;;6.60;4.20;;;;;;;6.71;43.45;100898.73;106752;1270;25532;-48
2023/03/06 00:46:08;;;;;;;6.40;4.50;;;;;;;6.73;43.57;100894.09;106005;1272;1003839;-48
2023/03/06 00:48:37;;;;;;;7.60;4.20;;;;;;;6.78;43.85;100889.92;107042;1269;25405;-47
2023/03/06 00:51:09;;;;;;;6.80;4.10;;;;;;;6.82;43.62;100888.52;106413;1269;1003414;-48
2023/03/06 00:53:41;;;;;;;6.00;4.20;;;;;;;6.85;44.01;100885.93;106121;1271;1003150;-48
2023/03/06 00:56:10;;;;;;;5.50;4.20;;;;;;;6.87;43.95;100891.79;106735;1272;25387;-47
2023/03/06 00:58:40;;;;;;;9.60;5.10;;;;;;;6.87;44.09;100893.16;106122;1271;1003002;-47
2023/03/06 01:01:08;;;;;;;6.40;4.70;;;;;;;6.88;44.45;100898.15;106997;1269;25347;-48
2023/03/06 01:03:38;;;;;;;7.40;4.90;;;;;;;6.90;44.64;100904.54;107033;1256;25319;-48
2023/03/06 01:06:08;;;;;;;7.30;4.90;;;;;;;6.91;45.09;100911.94;106971;1269;25318;-48
2023/03/06 01:08:37;;;;;;;7.40;4.50;;;;;;;6.93;45.46;100910.89;106915;1268;25347;-47
2023/03/06 01:11:06;;;;;;;8.70;5.20;;;;;;;6.95;45.58;100910.20;107008;1269;25318;-48
2023/03/06 01:13:34;;;;;;;6.00;5.20;;;;;;;6.96;45.59;100910.71;106964;1272;22506;-47
2023/03/06 01:16:11;;;;;;;8.10;4.90;;;;;;;6.97;45.75;100910.35;106334;1269;1002880;-47
2023/03/06 01:18:42;;;;;;;5.60;4.10;;;;;;;7.00;45.82;100910.51;106544;1270;323680;-47
2023/03/06 01:21:11;;;;;;;8.10;4.90;;;;;;;7.02;45.74;100913.95;106276;1268;1003488;-48
2023/03/06 01:23:41;;;;;;;7.00;5.10;;;;;;;7.06;45.78;100912.89;106860;1269;25332;-48
2023/03/06 01:26:09;;;;;;;6.70;4.60;;;;;;;7.08;45.57;100906.52;106751;1276;22554;-48
2023/03/06 01:28:39;;;;;;;7.50;4.20;;;;;;;7.11;45.55;100901.49;106993;1269;24230;-47
2023/03/06 01:31:08;;;;;;;6.90;4.00;;;;;;;7.13;45.35;100901.83;106020;1270;1003797;-48
2023/03/06 01:33:37;;;;;;;7.40;4.70;;;;;;;7.16;44.89;100905.42;106697;1272;25331;-47
2023/03/06 01:36:07;;;;;;;7.00;4.40;;;;;;;7.20;44.93;100909.20;106000;1271;1003080;-48
2023/03/06 01:38:35;;;;;;;7.30;4.50;;;;;;;7.23;45.05;100913.69;105994;1273;1003702;-47
2023/03/06 01:41:05;;;;;;;6.70;4.70;;;;;;;7.27;45.10;100907.09;105979;1274;1003770;-47
2023/03/06 01:43:34;;;;;;;7.40;4.00;;;;;;;7.31;44.85;100903.62;106843;1270;25427;-47
2023/03/06 01:46:28;;;;;;;7.60;5.10;;;;;;;7.35;44.77;100912.91;106799;1271;25459;-47
2023/03/06 01:49:11;;;;;;;6.40;3.90;;;;;;;7.37;44.99;100910.84;106788;1270;22531;-47
2023/03/06 01:51:51;;;;;;;7.40;4.30;;;;;;;7.40;45.06;100910.30;106817;1270;24276;-47
2023/03/06 01:54:30;;;;;;;6.30;4.30;;;;;;;7.42;44.77;100910.96;106017;1263;1002885;-48
2023/03/06 01:57:03;;;;;;;6.30;4.10;;;;;;;7.43;44.61;100909.92;106687;1273;25353;-47
2023/03/06 01:59:32;;;;;;;5.30;3.70;;;;;;;7.44;44.69;100904.05;106113;1271;1002947;-48
2023/03/06 02:02:01;;;;;;;6.60;3.70;;;;;;;7.44;44.43;100906.63;106870;1270;23563;-48
2023/03/06 02:04:29;;;;;;;5.70;3.60;;;;;;;7.44;44.33;100906.98;107029;1270;24577;-47
2023/03/06 02:06:58;;;;;;;7.70;4.50;;;;;;;7.45;44.20;100906.46;106345;1268;1002901;-48
2023/03/06 02:09:29;;;;;;;6.90;4.40;;;;;;;7.45;44.40;100906.80;106979;1269;25374;-48
2023/03/06 02:11:58;;;;;;;10.50;4.70;;;;;;;7.47;44.28;100907.83;106757;1268;22561;-47
2023/03/06 02:14:27;;;;;;;8.50;4.90;;;;;;;7.49;44.27;100909.53;106259;1269;1003233;-48
2023/03/06 02:17:03;;;;;;;7.80;4.40;;;;;;;7.51;44.46;100905.55;106886;1269;25402;-47
2023/03/06 02:20:06;;;;;;;8.90;5.10;;;;;;;7.52;44.73;100910.91;106966;1272;25363;-47
2023/03/06 02:22:57;;;;;;;14.20;6.30;;;;;;;7.54;44.93;100917.80;106356;1269;1003582;-47
2023/03/06 02:25:34;;;;;;;12.00;5.40;;;;;;;7.55;45.25;100914.67;106252;1269;1003721;-47
2023/03/06 02:28:05;;;;;;;11.00;5.60;;;;;;;7.58;45.56;100915.70;107061;1269;22634;-48
2023/03/06 02:30:35;;;;;;;10.40;5.60;;;;;;;7.59;45.81;100915.69;106860;1269;24432;-47
2023/03/06 02:33:04;;;;;;;9.00;5.10;;;;;;;7.61;46.15;100912.39;107075;1269;24221;-47
2023/03/06 02:35:34;;;;;;;8.10;5.20;;;;;;;7.64;47.00;100917.56;107024;1269;25344;-48
2023/03/06 02:38:08;;;;;;;9.60;5.70;;;;;;;7.66;47.58;100920.46;106901;1269;24034;-48
2023/03/06 02:40:37;;;;;;;9.50;5.50;;;;;;;7.68;47.99;100922.52;106898;1269;24199;-47
2023/03/06 02:43:06;;;;;;;9.90;5.40;;;;;;;7.71;48.23;100922.33;106955;1269;22625;-47
2023/03/06 02:45:43;;;;;;;9.10;5.50;;;;;;;7.74;48.72;100922.13;106321;1276;1003126;-47
2023/03/06 02:48:12;;;;;;;8.80;5.80;;;;;;;7.76;49.10;100919.70;106804;1272;24279;-47
2023/03/06 02:50:41;;;;;;;9.80;6.60;;;;;;;7.81;49.22;100921.73;106957;1269;22772;-47
2023/03/06 02:53:10;;;;;;;8.60;6.20;;;;;;;7.85;49.46;100919.61;107070;1269;24305;-49
2023/03/06 02:55:39;;;;;;;10.90;6.80;;;;;;;7.91;49.52;100919.06;107122;1269;25381;-47
2023/03/06 02:58:08;;;;;;;9.80;6.70;;;;;;;7.96;49.46;100919.54;106878;1269;25518;-47
2023/03/06 03:00:36;;;;;;;10.20;7.60;;;;;;;8.02;49.53;100914.83;106123;1269;1003193;-48
2023/03/06 03:03:06;;;;;;;12.40;7.70;;;;;;;8.08;49.41;100914.60;107028;1269;22628;-47
2023/03/06 03:05:35;;;;;;;11.00;7.50;;;;;;;8.14;49.38;100922.14;107041;1270;26493;-48
2023/03/06 03:08:19;;;;;;;10.90;7.30;;;;;;;8.19;49.13;100926.59;106966;1269;25341;-47
2023/03/06 03:10:48;;;;;;;11.30;7.20;;;;;;;8.25;48.86;100930.86;106860;1269;26265;-48
2023/03/06 03:13:18;;;;;;;17.50;8.10;;;;;;;8.29;48.80;100927.21;107046;1269;25350;-47
2023/03/06 03:16:02;;;;;;;11.70;7.20;;;;;;;8.33;48.81;100930.12;106991;1269;22541;-47
2023/03/06 03:18:33;;;;;;;10.10;6.80;;;;;;;8.36;48.56;100934.92;106811;1269;25338;-47
2023/03/06 03:21:06;;;;;;;11.10;7.20;;;;;;;8.37;48.71;100932.84;106848;1269;25243;-48
2023/03/06 03:23:35;;;;;;;11.70;6.70;;;;;;;8.38;48.57;100937.85;107016;1268;22539;-48
2023/03/06 03:26:17;;;;;;;10.60;7.20;;;;;;;8.38;48.51;100938.02;106806;1257;22513;-48
2023/03/06 03:29:00;;;;;;;11.00;7.20;;;;;;;8.38;48.67;100939.05;106913;1269;25344;-48
2023/03/06 03:31:29;;;;;;;10.90;7.20;;;;;;;8.38;48.64;100937.16;106932;1269;25412;-47
2023/03/06 03:33:57;;;;;;;9.00;6.60;;;;;;;8.38;48.74;100936.63;106987;1269;25357;-47
2023/03/06 03:36:27;;;;;;;14.40;7.40;;;;;;;8.36;48.75;100937.51;107048;1268;25346;-48
2023/03/06 03:38:56;;;;;;;12.20;7.20;;;;;;;8.33;48.98;100935.98;106252;1268;1003934;-48
2023/03/06 03:41:25;;;;;;;11.90;7.80;;;;;;;8.33;49.08;100938.75;106810;1269;25335;-48
2023/03/06 03:43:54;;;;;;;11.50;7.50;;;;;;;8.34;49.13;100941.00;106735;1276;25347;-47
2023/03/06 03:46:29;;;;;;;12.10;8.00;;;;;;;8.30;49.31;100943.11;106345;1269;1002408;-47
2023/03/06 03:48:59;;;;;;;11.40;6.80;;;;;;;8.28;49.37;100949.17;107084;1269;25356;-48
2023/03/06 03:51:28;;;;;;;12.60;7.60;;;;;;;8.32;49.27;100948.10;107054;1269;25360;-48
2023/03/06 03:53:58;;;;;;;12.50;7.80;;;;;;;8.39;49.10;100946.66;107092;1268;25341;-47
2023/03/06 03:56:29;;;;;;;12.20;6.80;;;;;;;8.32;49.15;100946.55;106854;1268;25285;-47
2023/03/06 03:59:01;;;;;;;12.00;7.00;;;;;;;8.30;49.08;100946.39;106824;1269;25335;-47
2023/03/06 04:01:34;;;;;;;11.00;7.40;;;;;;;8.28;48.98;100949.70;106971;1276;25360;-47
2023/03/06 04:04:06;;;;;;;12.90;7.00;;;;;;;8.26;49.04;100947.98;106322;1270;1003053;-48
2023/03/06 04:06:35;;;;;;;9.50;6.20;;;;;;;8.22;49.01;100946.09;107115;1269;25322;-48
2023/03/06 04:09:04;;;;;;;11.70;6.80;;;;;;;8.20;48.88;100941.77;106746;1273;22517;-48
2023/03/06 04:11:33;;;;;;;9.60;5.40;;;;;;;8.17;48.57;100939.39;106989;1269;22537;-48
2023/03/06 04:14:02;;;;;;;9.70;6.30;;;;;;;8.14;48.49;100944.95;106778;1272;25360;-48
2023/03/06 04:16:31;;;;;;;10.30;5.90;;;;;;;8.11;48.30;100942.90;106840;1271;25446;-47
2023/03/06 04:19:00;;;;;;;7.60;6.00;;;;;;;8.08;48.36;100938.26;107031;1268;25366;-48
2023/03/06 04:21:32;;;;;;;11.40;6.60;;;;;;;8.06;48.32;100938.45;107028;1269;25332;-47
2023/03/06 04:24:02;;;;;;;8.40;5.50;;;;;;;8.04;48.41;100943.65;107048;1270;23024;-48
2023/03/06 04:26:30;;;;;;;9.40;5.70;;;;;;;8.01;48.56;100943.86;106769;1273;25357;-47
2023/03/06 04:29:00;;;;;;;10.10;5.60;;;;;;;7.99;48.45;100940.76;106867;1264;25341;-46
2023/03/06 04:31:30;;;;;;;14.00;6.40;;;;;;;7.98;48.49;100942.67;106814;1270;25331;-48
2023/03/06 04:33:59;;;;;;;9.10;5.60;;;;;;;7.98;48.35;100944.92;106887;1269;25389;-48
2023/03/06 04:36:30;;;;;;;11.50;6.20;;;;;;;8.00;48.60;100950.95;106676;1275;25359;-47
2023/03/06 04:39:02;;;;;;;8.80;5.10;;;;;;;8.03;48.74;100951.80;106155;1269;1003000;-48
2023/03/06 04:41:33;;;;;;;7.90;5.70;;;;;;;8.05;48.46;100952.64;106623;1274;25946;-48
2023/03/06 04:44:02;;;;;;;6.90;4.90;;;;;;;8.06;48.08;100953.83;106755;1270;25331;-48
2023/03/06 04:46:31;;;;;;;8.60;5.60;;;;;;;8.07;47.66;100959.36;106018;1270;1002890;-48
2023/03/06 04:49:00;;;;;;;10.00;5.20;;;;;;;8.08;47.61;100961.92;106837;1270;26493;-49
2023/03/06 04:51:28;;;;;;;13.00;5.40;;;;;;;8.11;47.43;100965.54;106716;1273;22726;-47
2023/03/06 04:53:57;;;;;;;7.90;5.00;;;;;;;8.10;47.34;100969.52;106842;1269;25331;-47
2023/03/06 04:56:26;;;;;;;8.20;5.10;;;;;;;8.10;47.16;100972.45;106841;1269;23859;-47
2023/03/06 04:58:56;;;;;;;9.20;5.50;;;;;;;8.08;47.04;100978.00;106095;1270;1003470;-47
2023/03/06 05:01:24;;;;;;;8.50;6.00;;;;;;;8.06;47.07;100979.05;106074;1269;1002935;-47
2023/03/06 05:03:53;;;;;;;10.00;5.80;;;;;;;8.03;47.09;100983.23;106720;1270;26587;-49
2023/03/06 05:06:21;;;;;;;7.00;5.20;;;;;;;8.01;47.06;100988.09;106845;1272;25548;-48
2023/03/06 05:08:50;;;;;;;6.20;5.00;;;;;;;7.98;46.94;100985.69;107007;1269;25350;-48
2023/03/06 05:11:20;;;;;;;9.20;4.90;;;;;;;7.95;46.76;100989.34;105782;1275;1003023;-48
2023/03/06 05:13:49;;;;;;;7.10;4.80;;;;;;;7.93;46.77;100992.45;107067;1268;25433;-48
2023/03/06 05:16:22;;;;;;;9.00;5.60;;;;;;;7.90;46.51;100997.31;107008;1269;25366;-47
2023/03/06 05:18:51;;;;;;;7.90;5.40;;;;;;;7.89;46.36;101002.86;107067;1268;25363;-48
2023/03/06 05:21:20;;;;;;;8.70;5.00;;;;;;;7.87;46.58;101004.41;106876;1269;24382;-48
2023/03/06 05:23:48;;;;;;;7.40;5.10;;;;;;;7.85;46.22;101001.31;106851;1274;25369;-47
2023/03/06 05:26:16;;;;;;;6.50;4.30;;;;;;;7.83;45.69;101006.52;106335;1272;1003042;-47
2023/03/06 05:28:45;;;;;;;10.00;5.70;;;;;;;7.81;45.13;101010.67;106993;1269;25363;-47
2023/03/06 05:31:13;;;;;;;8.10;4.70;;;;;;;7.80;44.99;101015.35;107058;1269;26491;-47
2023/03/06 05:33:42;;;;;;;4.70;3.90;;;;;;;7.80;44.78;101018.80;106332;1270;1005426;-47
2023/03/06 05:36:11;;;;;;;7.10;4.30;;;;;;;7.79;44.68;101021.05;107074;1269;26670;-47
2023/03/06 05:38:44;;;;;;;5.60;4.40;;;;;;;7.78;44.64;101022.78;106956;1269;25340;-47
2023/03/06 05:41:14;;;;;;;5.90;4.30;;;;;;;7.78;44.46;101028.83;106374;1269;1002531;-47
2023/03/06 05:43:42;;;;;;;8.10;5.00;;;;;;;7.77;44.22;101028.83;107026;1269;26487;-48
2023/03/06 05:46:11;;;;;;;9.40;5.20;;;;;;;7.77;43.95;101028.84;106314;1269;1003508;-47
2023/03/06 05:48:39;;;;;;;7.00;4.70;;;;;;;7.77;43.86;101028.84;106808;1269;24260;-48
2023/03/06 05:51:08;;;;;;;5.90;4.20;;;;;;;7.74;43.67;101031.62;106878;1269;25328;-50
2023/03/06 05:53:38;;;;;;;6.30;4.50;;;;;;;7.77;43.44;101030.73;107004;1269;25606;-48
2023/03/06 05:56:09;;;;;;;5.60;4.40;;;;;;;7.79;43.16;101029.51;106213;1272;1002914;-48
2023/03/06 05:58:40;;;;;;;4.20;3.70;;;;;;;7.80;42.79;101033.30;106990;1269;26637;-47
2023/03/06 06:01:17;;;;;;;8.50;4.40;;;;;;;7.81;42.09;101033.81;107034;1270;25347;-47
2023/03/06 06:03:46;;;;;;;3.80;3.30;;;;;;;7.79;41.92;101036.25;106190;1270;1003281;-48
2023/03/06 06:06:15;;;;;;;8.30;3.80;;;;;;;7.85;41.47;101037.07;107079;1269;25440;-48
2023/03/06 06:08:43;;;;;;;6.70;4.10;;;;;;;7.88;41.45;101039.48;107084;1269;25322;-48
2023/03/06 06:11:12;;;;;;;6.50;4.10;;;;;;;7.91;41.26;101040.83;107035;1269;24391;-48
2023/03/06 06:13:43;;;;;;;6.60;5.00;;;;;;;7.94;40.92;101043.92;106317;1269;1003632;-48
2023/03/06 06:16:15;;;;;;;5.50;4.30;;;;;;;7.97;40.56;101048.41;106972;1272;25318;-48
2023/03/06 06:18:44;;;;;;;6.70;5.00;;;;;;;8.00;40.36;101052.87;106308;1268;1002546;-47
2023/03/06 06:21:17;;;;;;;6.90;4.80;;;;;;;8.00;40.25;101050.45;106849;1270;22636;-48
2023/03/06 06:23:47;;;;;;;9.40;4.60;;;;;;;8.01;40.14;101057.02;106764;1269;25408;-48
2023/03/06 06:26:15;;;;;;;5.50;4.20;;;;;;;8.03;39.96;101058.89;107033;1260;25340;-48
2023/03/06 06:28:44;;;;;;;6.60;4.30;;;;;;;8.04;40.16;101060.09;107028;1272;25515;-47
2023/03/06 06:31:12;;;;;;;7.20;4.10;;;;;;;8.08;40.29;101060.59;106026;1270;1002771;-47
2023/03/06 06:33:41;;;;;;;4.80;3.70;;;;;;;8.11;40.30;101058.66;106398;1269;1003594;-47
2023/03/06 06:36:20;;;;;;;5.70;3.80;;;;;;;8.14;40.44;101059.16;107091;1269;25472;-48
2023/03/06 06:38:49;;;;;;;6.70;4.10;;;;;;;8.17;40.58;101061.05;106811;1270;25342;-47
2023/03/06 06:41:18;;;;;;;5.40;3.60;;;;;;;8.19;40.70;101062.75;107038;1269;25331;-47
2023/03/06 06:44:09;;;;;;;4.20;3.40;;;;;;;8.22;40.72;101063.60;106905;1270;25356;-47
2023/03/06 06:46:39;;;;;;;6.20;3.80;;;;;;;8.25;40.93;101068.27;107122;1269;25321;-48
2023/03/06 06:49:29;;;;;;;5.00;3.10;;;;;;;8.29;41.12;101074.48;106970;1269;25343;-48
2023/03/06 06:51:58;;;;;;;5.40;3.40;;;;;;;8.33;40.98;101073.58;106273;1253;1002777;-47
2023/03/06 06:54:27;;;;;;;3.90;3.10;;;;;;;8.36;40.89;101076.14;106335;1269;1002834;-47
2023/03/06 06:56:55;;;;;;;5.20;3.30;;;;;;;8.40;40.71;101074.75;106795;1270;25325;-47
2023/03/06 06:59:24;;;;;;;4.00;3.20;;;;;;;8.43;40.76;101078.16;106976;1268;25452;-47
2023/03/06 07:01:52;;;;;;;6.10;3.10;;;;;;;8.47;40.84;101077.80;107011;1272;25344;-47
2023/03/06 07:04:21;;;;;;;5.30;2.80;;;;;;;8.51;41.13;101076.38;107147;1269;25359;-47
2023/03/06 07:06:50;;;;;;;4.90;3.00;;;;;;;8.57;41.04;101078.91;107028;1269;22539;-47
2023/03/06 07:09:18;;;;;;;6.00;3.00;;;;;;;8.61;41.41;101085.80;106287;1270;1003007;-46
2023/03/06 07:11:47;;;;;;;4.10;2.70;;;;;;;8.65;41.44;101093.71;106282;1269;1003468;-47
2023/03/06 07:14:15;;;;;;;5.40;3.10;;;;;;;8.68;41.26;101098.02;107091;1269;25335;-47
2023/03/06 07:16:44;;;;;;;5.00;2.60;;;;;;;8.71;41.06;101102.31;106946;1272;25363;-48
2023/03/06 07:19:16;;;;;;;5.80;3.10;;;;;;;8.75;40.82;101097.77;107015;1270;25516;-48
2023/03/06 07:21:45;;;;;;;4.00;2.80;;;;;;;8.78;40.71;101102.07;107027;1269;23980;-47
2023/03/06 07:24:14;;;;;;;5.40;3.20;;;;;;;8.81;40.85;101097.21;106846;1271;25350;-47
2023/03/06 07:26:47;;;;;;;6.40;3.20;;;;;;;8.84;40.73;101097.54;106303;1269;1003077;-47
2023/03/06 07:29:15;;;;;;;;;;;;;;;8.87;41.04;101102.16;106339;1269;1004597;-46
2023/03/06 07:31:43;;;;;;;4.00;2.60;;;;;;;8.92;41.02;101100.21;107030;1268;25210;-47
2023/03/06 07:34:12;;;;;;;4.20;2.70;;;;;;;8.96;41.01;101100.19;107006;1269;22524;-48
2023/03/06 07:36:40;;;;;;;5.20;2.50;;;;;;;9.01;41.07;101100.82;107005;1269;22519;-47
2023/03/06 07:39:09;;;;;;;3.70;2.60;;;;;;;9.07;41.12;101100.93;106265;1269;1003748;-48
2023/03/06 07:41:40;;;;;;;6.60;3.50;;;;;;;9.15;41.28;101103.10;106264;1272;1002957;-48
2023/03/06 07:44:09;;;;;;;5.10;3.20;;;;;;;9.23;41.45;101110.13;106798;1268;25306;-48
2023/03/06 07:46:38;;;;;;;5.50;3.60;;;;;;;9.30;41.84;101110.73;107006;1254;23211;-48
2023/03/06 07:49:06;;;;;;;7.30;4.00;;;;;;;9.38;42.04;101109.42;106968;1270;25408;-47
2023/03/06 07:51:35;;;;;;;7.20;3.50;;;;;;;9.46;42.39;101108.64;107104;1272;26487;-47
2023/03/06 07:54:04;;;;;;;4.90;2.90;;;;;;;9.55;42.73;101115.12;107062;1272;25363;-48
2023/03/06 07:56:34;;;;;;;4.30;3.10;;;;;;;9.62;43.13;101116.77;106029;1273;1003452;-48
2023/03/06 07:59:03;;;;;;;3.80;2.80;;;;;;;9.68;43.47;101118.60;106437;1270;1002928;-48
2023/03/06 08:01:31;;;;;;;4.00;2.90;;;;;;;9.72;43.85;101114.91;106969;1269;25337;-49
2023/03/06 08:04:00;;;;;;;4.10;2.90;;;;;;;9.75;44.05;101118.86;106991;1269;22643;-47
2023/03/06 08:06:29;;;;;;;5.10;2.90;;;;;;;9.78;44.19;101117.42;106971;1269;25360;-48
2023/03/06 08:08:57;;;;;;;7.10;4.40;;;;;;;9.80;44.60;101119.66;106865;1275;22513;-48
2023/03/06 08:11:29;;;;;;;5.70;3.70;;;;;;;9.77;45.14;101121.77;107025;1270;26500;-48
2023/03/06 08:13:59;;;;;;;4.50;3.30;;;;;;;9.82;45.74;101121.02;107066;1268;25353;-48
2023/03/06 08:16:28;;;;;;;7.40;4.80;;;;;;;9.82;45.79;101123.79;106049;1272;1003668;-48
2023/03/06 08:18:57;;;;;;;5.00;3.60;;;;;;;9.81;45.86;101122.23;107045;1269;22564;-48
2023/03/06 08:21:26;;;;;;;7.00;3.80;;;;;;;9.80;45.99;101122.95;106763;1273;22593;-48
2023/03/06 08:23:55;;;;;;;4.60;3.50;;;;;;;9.80;45.63;101121.23;107017;1272;22529;-48
2023/03/06 08:26:26;;;;;;;4.10;3.10;;;;;;;9.79;45.58;101120.54;106964;1272;25316;-47
2023/03/06 08:28:55;;;;;;;3.90;3.20;;;;;;;9.81;45.33;101118.77;107077;1269;24322;-47
2023/03/06 08:31:37;;;;;;;4.40;2.90;;;;;;;9.83;44.97;101118.06;107045;1268;24336;-47
2023/03/06 08:34:08;;;;;;;4.50;2.80;;;;;;;9.88;44.97;101121.80;106019;1270;1002922;-48
2023/03/06 08:36:37;;;;;;;4.80;3.00;;;;;;;9.92;45.57;101122.61;106822;1270;22618;-48
2023/03/06 08:39:05;;;;;;;4.70;3.00;;;;;;;9.96;45.88;101123.95;107045;1268;25325;-48
2023/03/06 08:41:35;;;;;;;4.00;2.70;;;;;;;9.99;45.97;101124.96;106979;1272;25334;-49
2023/03/06 08:44:04;;;;;;;8.00;3.50;;;;;;;9.97;46.45;101124.12;107020;1269;22520;-48
2023/03/06 08:46:33;;;;;;;6.60;3.40;;;;;;;9.96;46.90;101123.95;106859;1270;25399;-48
2023/03/06 08:49:01;;;;;;;5.20;3.30;;;;;;;9.97;47.21;101129.66;107057;1269;25315;-48
2023/03/06 08:51:30;;;;;;;4.70;3.50;;;;;;;9.99;47.43;101126.00;107020;1268;25363;-47
2023/03/06 08:54:00;;;;;;;5.80;3.30;;;;;;;10.02;47.46;101129.06;106969;1272;25360;-47
2023/03/06 08:56:31;;;;;;;5.40;3.30;;;;;;;10.05;47.50;101131.63;107045;1273;25363;-47
2023/03/06 08:59:00;;;;;;;4.50;3.20;;;;;;;10.08;47.43;101129.68;107014;1270;22517;-47
2023/03/06 09:01:33;;;;;;;4.60;3.20;;;;;;;10.12;47.48;101128.10;107024;1272;25326;-49
2023/03/06 09:04:22;;;;;;;5.50;3.80;;;;;;;10.17;47.49;101128.20;107060;1269;22563;-48
2023/03/06 09:06:50;;;;;;;6.80;3.90;;;;;;;10.21;47.51;101126.07;107073;1269;25330;-48
2023/03/06 09:09:21;;;;;;;5.00;3.60;;;;;;;10.24;47.54;101127.75;107026;1269;22642;-47
2023/03/06 09:11:52;;;;;;;6.00;3.70;;;;;;;10.26;47.69;101129.97;106322;1270;1002888;-47
2023/03/06 09:14:20;;;;;;;6.70;4.00;;;;;;;10.29;47.95;101133.92;107072;1256;25353;-47
2023/03/06 09:16:49;;;;;;;7.20;4.00;;;;;;;10.30;48.13;101133.91;106364;1269;1003388;-47
2023/03/06 09:19:17;;;;;;;4.90;3.00;;;;;;;10.31;48.33;101136.67;106848;1273;22544;-48
2023/03/06 09:21:47;;;;;;;6.50;3.40;;;;;;;10.28;48.53;101137.58;106976;1270;25325;-48
2023/03/06 09:24:16;;;;;;;7.10;4.30;;;;;;;10.27;48.78;101139.84;107026;1269;24495;-48
2023/03/06 09:26:44;;;;;;;5.40;3.70;;;;;;;10.25;49.06;101140.92;106285;1270;1003575;-48
2023/03/06 09:29:16;;;;;;;4.00;3.20;;;;;;;10.19;49.39;101141.02;107027;1268;22632;-48
2023/03/06 09:31:47;;;;;;;4.90;3.10;;;;;;;10.15;49.86;101143.31;106997;1272;25485;-48
2023/03/06 09:34:15;;;;;;;4.80;3.60;;;;;;;10.13;50.24;101138.31;107173;1270;25354;-48
2023/03/06 09:36:46;;;;;;;4.50;3.80;;;;;;;10.13;50.84;101145.60;107066;1269;25338;-48
2023/03/06 09:39:24;;;;;;;5.40;4.10;;;;;;;10.15;51.23;101144.88;106845;1270;25353;-48
2023/03/06 09:41:53;;;;;;;5.80;3.90;;;;;;;10.22;51.38;101146.15;107107;1269;22527;-48
2023/03/06 09:44:31;;;;;;;5.40;4.20;;;;;;;10.28;51.38;101148.69;107018;1269;25325;-48
2023/03/06 09:47:15;;;;;;;8.10;4.80;;;;;;;10.29;51.04;101150.91;106891;1272;25353;-49
2023/03/06 09:50:03;;;;;;;6.90;4.70;;;;;;;10.31;50.90;101151.23;107024;1272;25343;-48
2023/03/06 09:52:45;;;;;;;6.70;5.00;;;;;;;10.32;50.86;101154.16;107046;1272;25321;-48
2023/03/06 09:55:14;;;;;;;;;;;;;;;10.32;50.88;101150.52;107030;1272;26581;-48
2023/03/06 09:57:53;;;;;;;8.50;4.80;;;;;;;10.30;50.65;101148.98;106857;1270;22661;-48
2023/03/06 10:01:01;;;;;;;6.80;4.90;;;;;;;10.27;50.20;101147.98;107066;1269;25274;-48
2023/03/06 10:03:38;;;;;;;7.70;5.30;;;;;;;10.24;49.63;101147.17;106580;1275;25321;-48
2023/03/06 10:06:33;;;;;;;7.70;5.30;;;;;;;10.24;49.70;101144.92;105761;1278;1003033;-47
2023/03/06 10:09:08;;;;;;;6.90;4.80;;;;;;;10.26;49.81;101138.83;106376;1278;24409;-48
2023/03/06 10:11:52;;;;;;;9.50;4.80;;;;;;;10.27;49.86;101136.89;106466;1275;25328;-48
2023/03/06 10:14:31;;;;;;;8.30;5.50;;;;;;;10.28;49.86;101136.01;106468;1276;24282;-48
2023/03/06 10:17:01;;;;;;;8.00;5.50;;;;;;;10.30;49.76;101133.21;106379;1276;22530;-50
2023/03/06 10:19:36;;;;;;;8.20;4.80;;;;;;;10.32;50.05;101128.84;105512;1276;1003632;-47
2023/03/06 10:22:25;;;;;;;7.70;5.10;;;;;;;10.34;49.96;101130.90;106327;1276;25334;-48
2023/03/06 10:24:57;;;;;;;6.80;4.60;;;;;;;10.35;49.79;101128.98;105773;1276;1002735;-48
2023/03/06 10:27:33;;;;;;;7.80;4.60;;;;;;;10.37;49.58;101129.81;106522;1275;25391;-47
2023/03/06 10:30:25;;;;;;;6.60;4.80;;;;;;;10.37;49.65;101129.29;106424;1276;25734;-48
2023/03/06 10:32:57;;;;;;;7.00;4.60;;;;;;;10.38;49.64;101122.01;106522;1276;22543;-47
2023/03/06 10:35:35;;;;;;;5.80;4.30;;;;;;;10.38;49.69;101122.16;106496;1276;24404;-47
2023/03/06 10:38:37;;;;;;;5.10;3.90;;;;;;;10.40;49.65;101121.27;106521;1276;25600;-47
2023/03/06 10:41:12;;;;;;;7.90;4.60;;;;;;;10.45;49.57;101116.50;106308;1279;25424;-48
2023/03/06 10:43:43;;;;;;;6.20;4.80;;;;;;;10.51;49.49;101116.57;106416;1275;22533;-48
2023/03/06 10:46:13;;;;;;;8.20;5.00;;;;;;;10.56;49.40;101112.52;106288;1278;25517;-47
2023/03/06 10:48:43;;;;;;;7.30;4.80;;;;;;;10.60;49.27;101116.11;106436;1275;25366;-48
2023/03/06 10:51:18;;;;;;;6.30;4.80;;;;;;;10.62;49.26;101108.95;105656;1275;1003626;-48
2023/03/06 10:53:48;;;;;;;6.90;4.50;;;;;;;10.62;49.32;101107.04;106400;1275;22521;-47
2023/03/06 10:56:39;;;;;;;6.00;4.90;;;;;;;10.60;49.32;101108.80;106386;1281;22536;-47
2023/03/06 10:59:12;;;;;;;;;;;;;;;10.59;49.42;101108.31;106374;1281;24389;-49
2023/03/06 11:01:48;;;;;;;5.60;4.10;;;;;;;10.58;49.40;101109.88;106167;1276;25373;-48
2023/03/06 11:04:24;;;;;;;5.70;4.40;;;;;;;10.53;49.57;101112.58;106409;1275;22740;-48
2023/03/06 11:07:17;;;;;;;6.70;5.00;;;;;;;10.50;49.65;101113.64;106458;1276;25516;-48
2023/03/06 11:09:57;;;;;;;6.90;4.90;;;;;;;10.48;49.85;101113.52;106386;1276;25325;-48
2023/03/06 11:12:31;;;;;;;7.80;5.00;;;;;;;10.47;50.11;101117.67;106517;1276;24321;-48
2023/03/06 11:15:13;;;;;;;7.40;4.90;;;;;;;10.48;50.40;101115.60;106378;1275;25419;-48
2023/03/06 11:18:26;;;;;;;7.60;4.70;;;;;;;10.50;50.62;101108.27;106486;1276;24306;-48
2023/03/06 11:20:55;;;;;;;6.40;5.30;;;;;;;10.54;50.79;101105.10;107083;1268;22515;-48
2023/03/06 11:23:39;;;;;;;7.60;5.20;;;;;;;10.58;50.76;101104.52;106946;1273;25284;-48
2023/03/06 11:26:14;;;;;;;8.70;5.80;;;;;;;10.62;50.54;101102.89;106928;1272;25337;-48
2023/03/06 11:28:58;;;;;;;12.60;8.50;;;;;;;10.64;50.60;101101.63;107073;1272;25363;-48
2023/03/06 11:31:32;;;;;;;12.70;8.00;;;;;;;10.68;50.71;101104.87;106744;1276;22607;-48
2023/03/06 11:34:06;;;;;;;16.90;9.20;;;;;;;10.70;50.78;101101.54;106737;1276;24365;-47
2023/03/06 11:36:45;;;;;;;14.00;8.00;;;;;;;10.73;50.63;101098.72;106913;1270;25333;-48
2023/03/06 11:39:34;;;;;;;10.60;6.40;;;;;;;10.76;50.22;101096.05;106860;1270;22518;-48
2023/03/06 11:42:23;;;;;;;8.30;5.60;;;;;;;10.81;50.20;101097.70;106797;1275;22533;-48